Time;durP1;ratioP1;P1;durP2;ratioP2;P2;SDS_P1;SDS_P2;PMS_P1;PMS_P2;Temp;Humidity;BMP_temperature;BMP_pressure;BME280_temperature;BME280_humidity;BME280_pressure;Samples;Min_cycle;Max_cycle;Signal;HPM_P1;HPM_P2
2023/08/27 00:00:37;;;;;;;0.35;0.35;;;;;;;13.37;100.00;99742.41;5007677;28;20273;-61
2023/08/27 00:03:02;;;;;;;0.30;0.30;;;;;;;13.37;100.00;99752.03;5007185;28;20022;-61
2023/08/27 00:05:28;;;;;;;0.30;0.30;;;;;;;13.35;100.00;99752.06;5007209;28;20019;-61
2023/08/27 00:07:53;;;;;;;0.28;0.28;;;;;;;13.31;100.00;99753.03;5007014;28;20024;-62
2023/08/27 00:10:19;;;;;;;0.30;0.30;;;;;;;13.29;100.00;99757.44;5007427;28;20028;-61
2023/08/27 00:12:44;;;;;;;0.30;0.30;;;;;;;13.26;100.00;99754.94;5007521;28;20368;-62
2023/08/27 00:15:10;;;;;;;0.30;0.30;;;;;;;13.22;100.00;99750.72;5007223;28;20051;-61
2023/08/27 00:17:35;;;;;;;0.30;0.30;;;;;;;13.23;100.00;99753.28;5007239;28;20026;-61
2023/08/27 00:20:04;;;;;;;0.28;0.28;;;;;;;13.24;100.00;99751.53;5006975;28;20606;-61
2023/08/27 00:22:30;;;;;;;0.30;0.30;;;;;;;13.20;100.00;99752.50;5007384;28;20029;-61
2023/08/27 00:24:55;;;;;;;0.30;0.30;;;;;;;13.14;100.00;99751.81;5007123;28;20022;-61
2023/08/27 00:27:21;;;;;;;0.30;0.30;;;;;;;13.16;100.00;99758.72;5006838;28;20022;-61
2023/08/27 00:29:46;;;;;;;0.20;0.20;;;;;;;13.06;100.00;99745.97;5007221;28;20514;-61
2023/08/27 00:32:12;;;;;;;0.30;0.30;;;;;;;13.14;100.00;99764.84;5006943;28;20475;-61
2023/08/27 00:34:37;;;;;;;0.30;0.30;;;;;;;13.14;100.00;99766.59;5006784;28;20022;-60
2023/08/27 00:37:03;;;;;;;0.30;0.30;;;;;;;13.20;100.00;99781.19;5006749;28;20026;-61
2023/08/27 00:39:29;;;;;;;0.20;0.20;;;;;;;13.22;100.00;99779.38;5006980;28;20030;-61
2023/08/27 00:41:54;;;;;;;0.40;0.40;;;;;;;13.24;100.00;99780.19;5006686;28;20030;-60
2023/08/27 00:44:20;;;;;;;0.30;0.30;;;;;;;13.25;100.00;99782.75;5006911;28;20034;-61
2023/08/27 00:46:49;;;;;;;0.20;0.20;;;;;;;13.25;100.00;99789.72;5006452;28;20049;-61
2023/08/27 00:49:15;;;;;;;0.30;0.30;;;;;;;13.29;100.00;99782.66;5006574;28;20097;-61
2023/08/27 00:51:44;;;;;;;0.30;0.30;;;;;;;13.30;100.00;99795.66;5006348;28;20506;-62
2023/08/27 00:54:11;;;;;;;0.30;0.30;;;;;;;13.27;100.00;99790.53;5006450;28;20029;-60
2023/08/27 00:56:37;;;;;;;0.30;0.30;;;;;;;13.26;100.00;99788.81;5006267;28;20034;-62
2023/08/27 00:59:04;;;;;;;0.30;0.30;;;;;;;13.26;100.00;99781.00;5006432;28;20038;-61
2023/08/27 01:01:30;;;;;;;0.30;0.30;;;;;;;13.30;100.00;99777.41;5006219;28;20033;-62
2023/08/27 01:03:55;;;;;;;0.30;0.30;;;;;;;13.30;100.00;99782.63;5006207;28;20471;-61
2023/08/27 01:06:21;;;;;;;0.30;0.30;;;;;;;13.29;100.00;99770.47;5006220;28;20098;-61
2023/08/27 01:09:03;;;;;;;0.30;0.30;;;;;;;13.35;100.00;99775.53;5005943;28;20041;-62
2023/08/27 01:12:08;;;;;;;0.28;0.28;;;;;;;13.36;100.00;99779.84;5006389;28;20036;-62
2023/08/27 01:14:36;;;;;;;0.30;0.30;;;;;;;13.39;100.00;99768.44;5006234;28;20052;-60
2023/08/27 01:17:03;;;;;;;0.20;0.20;;;;;;;13.39;100.00;99771.91;5006361;28;20030;-60
2023/08/27 01:19:30;;;;;;;0.28;0.28;;;;;;;13.42;100.00;99764.91;5005996;28;20083;-60
2023/08/27 01:21:55;;;;;;;0.20;0.20;;;;;;;13.47;100.00;99771.69;5006070;28;20108;-60
2023/08/27 01:24:21;;;;;;;0.30;0.30;;;;;;;13.53;100.00;99775.88;5006140;28;20026;-60
2023/08/27 01:26:54;;;;;;;0.30;0.30;;;;;;;13.53;100.00;99775.03;5005986;28;20032;-61
2023/08/27 01:29:23;;;;;;;0.30;0.30;;;;;;;13.57;100.00;99772.28;5006065;28;20096;-61
2023/08/27 01:32:00;;;;;;;0.30;0.30;;;;;;;13.61;100.00;99775.66;5006162;28;20451;-61
2023/08/27 01:34:28;;;;;;;0.25;0.25;;;;;;;13.59;100.00;99775.72;5005639;28;20041;-61
2023/08/27 01:36:54;;;;;;;0.32;0.32;;;;;;;13.60;100.00;99777.41;5005605;28;20033;-61
2023/08/27 01:39:19;;;;;;;0.30;0.30;;;;;;;13.60;100.00;99768.72;5006017;28;20022;-60
2023/08/27 01:41:46;;;;;;;0.60;0.60;;;;;;;13.63;100.00;99772.09;5005959;28;20033;-61
2023/08/27 01:44:11;;;;;;;0.20;0.20;;;;;;;13.67;100.00;99772.00;5005852;28;20023;-60
2023/08/27 01:46:37;;;;;;;0.25;0.25;;;;;;;13.61;100.00;99754.78;5005822;28;20094;-61
2023/08/27 01:49:03;;;;;;;0.30;0.30;;;;;;;13.70;100.00;99764.06;5005591;28;20014;-60
2023/08/27 01:51:29;;;;;;;0.20;0.20;;;;;;;13.70;100.00;99770.16;5004993;28;20029;-60
2023/08/27 01:53:54;;;;;;;0.20;0.20;;;;;;;13.72;100.00;99762.28;5005432;28;20030;-61
2023/08/27 01:56:19;;;;;;;0.30;0.30;;;;;;;13.70;100.00;99758.84;5005840;28;20026;-61
2023/08/27 01:58:45;;;;;;;0.30;0.30;;;;;;;13.66;100.00;99754.66;5005630;28;20026;-60
2023/08/27 02:01:10;;;;;;;0.20;0.20;;;;;;;13.66;100.00;99758.09;5005751;28;20043;-61
2023/08/27 02:03:36;;;;;;;0.30;0.30;;;;;;;13.62;100.00;99757.34;5005404;28;20050;-61
2023/08/27 02:06:01;;;;;;;0.20;0.20;;;;;;;13.64;100.00;99754.69;5005270;28;20040;-61
2023/08/27 02:08:26;;;;;;;0.20;0.20;;;;;;;13.63;100.00;99751.22;5005201;28;20034;-60
2023/08/27 02:10:52;;;;;;;0.20;0.20;;;;;;;13.62;100.00;99753.88;5005292;28;20030;-60
2023/08/27 02:13:17;;;;;;;0.30;0.30;;;;;;;13.60;100.00;99753.94;5005386;28;20053;-61
2023/08/27 02:15:43;;;;;;;0.20;0.20;;;;;;;13.65;100.00;99755.53;5005294;28;20073;-61
2023/08/27 02:18:09;;;;;;;0.30;0.30;;;;;;;13.65;100.00;99759.00;5005386;28;20109;-61
2023/08/27 02:20:35;;;;;;;0.20;0.20;;;;;;;13.65;100.00;99748.56;5005326;28;20029;-61
2023/08/27 02:23:01;;;;;;;0.20;0.20;;;;;;;13.63;100.00;99752.97;5005211;28;20031;-61
2023/08/27 02:25:26;;;;;;;0.30;0.30;;;;;;;13.68;100.00;99752.81;5005448;28;20060;-61
2023/08/27 02:27:52;;;;;;;0.30;0.30;;;;;;;13.71;100.00;99750.97;5005315;28;20050;-61
2023/08/27 02:30:17;;;;;;;0.30;0.30;;;;;;;13.69;100.00;99738.91;5005327;28;20076;-61
2023/08/27 02:32:42;;;;;;;0.30;0.30;;;;;;;13.71;100.00;99734.47;5005143;28;20022;-61
2023/08/27 02:35:08;;;;;;;0.40;0.40;;;;;;;13.73;100.00;99740.50;5005345;28;20032;-61
2023/08/27 02:37:33;;;;;;;0.20;0.20;;;;;;;13.74;100.00;99727.41;5005083;28;20034;-61
2023/08/27 02:39:59;;;;;;;0.30;0.30;;;;;;;13.75;100.00;99728.25;5005163;28;20027;-60
2023/08/27 02:42:24;;;;;;;0.30;0.30;;;;;;;13.73;100.00;99733.53;5005198;28;20023;-61
2023/08/27 02:44:49;;;;;;;0.30;0.30;;;;;;;13.78;100.00;99730.78;5005312;28;20034;-61
2023/08/27 02:47:16;;;;;;;0.30;0.30;;;;;;;13.71;100.00;99717.06;5005380;28;20026;-61
2023/08/27 02:49:42;;;;;;;0.30;0.30;;;;;;;13.79;100.00;99721.16;5005298;28;20037;-61
2023/08/27 02:52:07;;;;;;;0.30;0.30;;;;;;;13.76;100.00;99722.13;5003614;28;20054;-61
2023/08/27 02:54:32;;;;;;;0.30;0.30;;;;;;;13.74;100.00;99718.72;5005103;28;20022;-60
2023/08/27 02:56:58;;;;;;;0.30;0.30;;;;;;;13.79;100.00;99711.59;5004771;28;20057;-61
2023/08/27 02:59:23;;;;;;;0.30;0.30;;;;;;;13.79;100.00;99708.97;5004973;28;20027;-60
2023/08/27 03:01:51;;;;;;;0.30;0.30;;;;;;;13.80;100.00;99708.06;5005051;28;20390;-60
2023/08/27 03:04:16;;;;;;;0.30;0.30;;;;;;;13.75;100.00;99703.00;5005909;28;20105;-61
2023/08/27 03:06:42;;;;;;;1.40;1.30;;;;;;;13.79;100.00;99708.97;5008712;28;20023;-60
2023/08/27 03:09:07;;;;;;;0.30;0.30;;;;;;;13.80;100.00;99712.47;5008586;28;20466;-59
2023/08/27 03:11:33;;;;;;;0.20;0.20;;;;;;;13.74;100.00;99706.53;5008473;28;20033;-61
2023/08/27 03:13:58;;;;;;;0.30;0.30;;;;;;;13.74;100.00;99714.34;5008863;28;20026;-61
2023/08/27 03:16:24;;;;;;;0.60;0.60;;;;;;;13.71;100.00;99714.47;5008152;28;20104;-61
2023/08/27 03:18:49;;;;;;;0.20;0.20;;;;;;;13.70;100.00;99717.97;5008508;28;20038;-61
2023/08/27 03:21:14;;;;;;;0.30;0.30;;;;;;;13.69;100.00;99711.03;5008032;28;20094;-61
2023/08/27 03:23:40;;;;;;;0.30;0.30;;;;;;;13.69;100.00;99710.22;5008496;28;20050;-60
2023/08/27 03:26:05;;;;;;;0.25;0.25;;;;;;;13.62;100.00;99715.63;5006860;28;20026;-60
2023/08/27 03:28:30;;;;;;;0.30;0.30;;;;;;;13.60;100.00;99711.34;5007934;28;20081;-61
2023/08/27 03:30:56;;;;;;;0.20;0.20;;;;;;;13.57;100.00;99707.09;5008431;28;20037;-60
2023/08/27 03:33:21;;;;;;;0.20;0.20;;;;;;;13.56;100.00;99702.75;5008349;28;20030;-60
2023/08/27 03:35:55;;;;;;;0.20;0.20;;;;;;;13.51;100.00;99712.50;5007689;28;20026;-61
2023/08/27 03:38:20;;;;;;;0.40;0.40;;;;;;;13.49;100.00;99709.06;5008098;28;20041;-61
2023/08/27 03:40:49;;;;;;;0.30;0.30;;;;;;;13.48;100.00;99702.97;5008040;28;20022;-61
2023/08/27 03:43:15;;;;;;;0.30;0.30;;;;;;;13.48;100.00;99712.56;5007892;28;20374;-61
2023/08/27 03:45:40;;;;;;;0.30;0.30;;;;;;;13.47;100.00;99721.28;5007598;28;20026;-61
2023/08/27 03:48:05;;;;;;;0.65;0.65;;;;;;;13.47;100.00;99721.28;5007536;28;20109;-61
2023/08/27 03:50:31;;;;;;;0.30;0.30;;;;;;;13.44;100.00;99727.44;5007712;28;20101;-61
2023/08/27 03:52:57;;;;;;;0.40;0.40;;;;;;;13.45;100.00;99728.31;5007820;28;20018;-61
2023/08/27 03:55:22;;;;;;;0.30;0.30;;;;;;;13.41;100.00;99724.06;5007777;28;20026;-61
2023/08/27 03:57:49;;;;;;;0.30;0.30;;;;;;;13.39;100.00;99721.50;5007427;28;20046;-60
2023/08/27 04:00:15;;;;;;;0.30;0.30;;;;;;;13.38;100.00;99731.13;5007485;28;20099;-60
2023/08/27 04:02:42;;;;;;;0.60;0.60;;;;;;;13.40;100.00;99738.88;5007377;28;20491;-61
2023/08/27 04:05:08;;;;;;;0.30;0.30;;;;;;;13.43;100.00;99743.13;5007396;28;20062;-62
2023/08/27 04:07:33;;;;;;;0.30;0.30;;;;;;;13.42;100.00;99749.28;5007179;28;20041;-60
2023/08/27 04:09:58;;;;;;;0.43;0.43;;;;;;;13.45;100.00;99755.22;5007463;28;20033;-61
2023/08/27 04:12:24;;;;;;;0.30;0.30;;;;;;;13.44;100.00;99752.66;5007253;28;20022;-61
2023/08/27 04:14:49;;;;;;;0.20;0.20;;;;;;;13.46;100.00;99761.28;5006779;28;20065;-60
2023/08/27 04:17:15;;;;;;;0.20;0.20;;;;;;;13.48;100.00;99762.13;5005938;28;20080;-61
2023/08/27 04:19:40;;;;;;;0.30;0.30;;;;;;;13.53;100.00;99759.38;5007449;28;20057;-60
2023/08/27 04:22:05;;;;;;;0.93;0.88;;;;;;;13.51;100.00;99757.66;5006993;28;20037;-61
2023/08/27 04:24:31;;;;;;;0.30;0.30;;;;;;;13.58;100.00;99766.16;5007090;28;20030;-61
2023/08/27 04:26:58;;;;;;;0.30;0.30;;;;;;;13.60;100.00;99769.56;5007338;28;20023;-60
2023/08/27 04:29:23;;;;;;;0.30;0.30;;;;;;;13.67;100.00;99778.06;5007414;28;20090;-60
2023/08/27 04:31:49;;;;;;;1.83;1.77;;;;;;;13.77;100.00;99777.78;5007170;28;20113;-61
2023/08/27 04:34:14;;;;;;;0.20;0.20;;;;;;;13.93;100.00;99778.97;5006715;28;20052;-60
2023/08/27 04:36:40;;;;;;;0.22;0.22;;;;;;;14.09;100.00;99788.94;5006572;28;20033;-60
2023/08/27 04:39:07;;;;;;;0.20;0.20;;;;;;;14.24;100.00;99790.16;5006613;28;20049;-60
2023/08/27 04:41:33;;;;;;;0.20;0.20;;;;;;;14.38;100.00;99780.09;5006713;28;20072;-60
2023/08/27 04:43:59;;;;;;;0.20;0.20;;;;;;;14.58;100.00;99777.69;5006697;28;20050;-61
2023/08/27 04:46:24;;;;;;;0.57;0.57;;;;;;;14.69;100.00;99779.94;5006672;28;20022;-61
2023/08/27 04:48:50;;;;;;;0.20;0.20;;;;;;;14.86;100.00;99776.72;5006460;28;20082;-60
2023/08/27 04:51:16;;;;;;;0.30;0.30;;;;;;;15.07;100.00;99780.31;5006480;28;20109;-61
2023/08/27 04:53:41;;;;;;;0.20;0.20;;;;;;;15.32;100.00;99761.09;5006807;28;20026;-61
2023/08/27 04:56:07;;;;;;;0.20;0.20;;;;;;;15.49;100.00;99772.66;5006443;28;20042;-60
2023/08/27 04:58:32;;;;;;;0.20;0.20;;;;;;;15.51;100.00;99764.75;5006254;28;20027;-60
2023/08/27 05:00:58;;;;;;;0.20;0.20;;;;;;;15.47;100.00;99770.09;5006494;28;20044;-60
2023/08/27 05:03:23;;;;;;;0.60;0.60;;;;;;;15.52;100.00;99777.78;5006118;28;20018;-60
2023/08/27 05:05:53;;;;;;;0.20;0.20;;;;;;;15.61;100.00;99779.16;5005897;28;20026;-60
2023/08/27 05:08:18;;;;;;;0.20;0.20;;;;;;;15.94;100.00;99781.31;5005884;28;20019;-60
2023/08/27 05:10:44;;;;;;;0.20;0.20;;;;;;;16.27;100.00;99766.94;5006657;28;20053;-61
2023/08/27 05:13:09;;;;;;;0.20;0.20;;;;;;;16.67;100.00;99764.34;5006021;28;20053;-62
2023/08/27 05:15:35;;;;;;;0.20;0.20;;;;;;;17.00;100.00;99773.38;5006192;28;20057;-61
2023/08/27 05:18:00;;;;;;;0.20;0.20;;;;;;;17.34;100.00;99756.13;5006062;28;20058;-61
2023/08/27 05:20:26;;;;;;;0.20;0.20;;;;;;;17.80;100.00;99760.06;5005926;28;20022;-64
2023/08/27 05:22:51;;;;;;;0.20;0.20;;;;;;;18.29;100.00;99755.09;5006218;28;20077;-61
2023/08/27 05:25:17;;;;;;;0.20;0.20;;;;;;;18.66;100.00;99754.94;5006210;28;20029;-61
2023/08/27 05:27:45;;;;;;;0.25;0.25;;;;;;;18.91;100.00;99761.53;5005445;28;20033;-61
2023/08/27 05:30:17;;;;;;;0.20;0.20;;;;;;;19.29;100.00;99753.34;5005716;28;20088;-61
2023/08/27 05:32:43;;;;;;;0.63;0.63;;;;;;;19.62;100.00;99746.25;5005805;28;20033;-61
2023/08/27 05:35:09;;;;;;;0.60;0.60;;;;;;;19.78;100.00;99743.59;5005265;28;20030;-60
2023/08/27 05:37:35;;;;;;;0.20;0.20;;;;;;;20.10;100.00;99749.72;5005732;28;20031;-61
2023/08/27 05:40:01;;;;;;;0.10;0.10;;;;;;;20.00;100.00;99749.41;5005894;28;20030;-61
2023/08/27 05:42:26;;;;;;;0.20;0.20;;;;;;;20.14;100.00;99751.25;5005926;28;20022;-60
2023/08/27 05:44:51;;;;;;;0.10;0.10;;;;;;;20.38;100.00;99761.25;5005743;28;20058;-61
2023/08/27 05:47:17;;;;;;;0.20;0.20;;;;;;;20.20;97.96;99756.16;5005601;28;20105;-61
2023/08/27 05:49:45;;;;;;;0.50;0.50;;;;;;;20.09;100.00;99763.84;5005851;28;20048;-61
2023/08/27 05:52:10;;;;;;;0.20;0.20;;;;;;;20.04;98.47;99762.34;5005645;28;20030;-61
2023/08/27 05:54:36;;;;;;;0.20;0.20;;;;;;;20.35;100.00;99764.09;5005578;28;20026;-61
2023/08/27 05:57:02;;;;;;;0.30;0.30;;;;;;;20.47;100.00;99765.97;5005734;28;20026;-61
2023/08/27 05:59:28;;;;;;;0.20;0.20;;;;;;;20.37;100.00;99762.19;5005787;28;20422;-60
2023/08/27 06:01:53;;;;;;;0.10;0.10;;;;;;;20.34;100.00;99765.00;5005716;28;20018;-61
2023/08/27 06:04:19;;;;;;;0.10;0.10;;;;;;;20.05;100.00;99769.28;5005376;28;20018;-62
2023/08/27 06:06:44;;;;;;;0.10;0.10;;;;;;;19.99;98.71;99777.53;5005222;28;20036;-60
2023/08/27 06:09:09;;;;;;;0.10;0.10;;;;;;;20.10;95.33;99778.69;5005311;28;20023;-60
2023/08/27 06:11:35;;;;;;;0.10;0.10;;;;;;;20.12;92.36;99782.09;5004132;28;20034;-62
2023/08/27 06:14:00;;;;;;;0.20;0.20;;;;;;;20.11;96.40;99790.97;5005692;28;20382;-61
2023/08/27 06:16:25;;;;;;;0.17;0.17;;;;;;;20.33;96.06;99787.03;5005320;28;20039;-60
2023/08/27 06:18:51;;;;;;;0.20;0.20;;;;;;;20.56;96.58;99786.50;5005247;28;20026;-61
2023/08/27 06:21:17;;;;;;;0.10;0.10;;;;;;;20.83;97.14;99782.28;5005191;28;20026;-60
2023/08/27 06:23:43;;;;;;;0.20;0.20;;;;;;;21.09;96.41;99779.84;5005453;28;20081;-61
2023/08/27 06:26:08;;;;;;;0.10;0.10;;;;;;;21.37;97.77;99777.25;5005193;28;20029;-61
2023/08/27 06:28:34;;;;;;;0.17;0.17;;;;;;;21.56;95.83;99776.91;5005246;28;20113;-61
2023/08/27 06:31:00;;;;;;;0.50;0.50;;;;;;;21.45;91.90;99774.09;5005362;28;20054;-60
2023/08/27 06:33:25;;;;;;;0.20;0.20;;;;;;;20.94;83.36;99765.84;5003808;28;20042;-61
2023/08/27 06:35:51;;;;;;;0.10;0.10;;;;;;;20.84;87.43;99764.66;5005077;28;20034;-61
2023/08/27 06:38:17;;;;;;;0.10;0.10;;;;;;;20.84;90.13;99783.13;5006063;28;20029;-62
2023/08/27 06:40:43;;;;;;;0.20;0.20;;;;;;;20.99;94.64;99782.19;5009171;28;20022;-60
2023/08/27 06:43:09;;;;;;;0.10;0.10;;;;;;;21.16;91.88;99785.59;5008846;28;20022;-60
2023/08/27 06:45:35;;;;;;;0.10;0.10;;;;;;;21.19;83.55;99790.66;5009221;28;20041;-61
2023/08/27 06:48:01;;;;;;;0.10;0.10;;;;;;;21.25;86.06;99799.97;5008892;28;20030;-61
2023/08/27 06:50:26;;;;;;;0.10;0.10;;;;;;;21.35;92.51;99797.59;5008509;28;20053;-61
2023/08/27 06:52:51;;;;;;;0.10;0.10;;;;;;;20.97;87.12;99792.03;5007479;28;20098;-62
2023/08/27 06:55:17;;;;;;;0.17;0.17;;;;;;;20.51;82.99;99783.28;5008620;28;20077;-61
2023/08/27 06:57:42;;;;;;;0.30;0.30;;;;;;;20.52;83.58;99787.66;5008716;28;20036;-60
2023/08/27 07:00:09;;;;;;;0.20;0.20;;;;;;;20.48;84.76;99791.41;5008629;28;20022;-60
2023/08/27 07:02:35;;;;;;;0.10;0.10;;;;;;;20.43;84.21;99793.47;5008639;28;20041;-60
2023/08/27 07:05:00;;;;;;;0.10;0.10;;;;;;;20.31;83.25;99800.31;5008584;28;20026;-60
2023/08/27 07:07:26;;;;;;;0.20;0.20;;;;;;;20.54;89.34;99804.19;5008027;28;20470;-61
2023/08/27 07:09:51;;;;;;;0.20;0.20;;;;;;;21.09;87.70;99806.22;5008722;28;20034;-61
2023/08/27 07:12:18;;;;;;;0.10;0.10;;;;;;;21.57;87.52;99798.84;5008332;28;20030;-61
2023/08/27 07:14:44;;;;;;;0.10;0.10;;;;;;;21.71;90.45;99796.16;5008488;28;20033;-61
2023/08/27 07:17:10;;;;;;;0.20;0.20;;;;;;;21.54;82.15;99805.19;5008417;28;20049;-61
2023/08/27 07:19:35;;;;;;;0.25;0.25;;;;;;;21.24;79.37;99804.44;5008178;28;20105;-62
2023/08/27 07:22:01;;;;;;;0.10;0.10;;;;;;;20.81;75.76;99798.19;5007881;28;20030;-61
2023/08/27 07:24:26;;;;;;;0.20;0.20;;;;;;;20.73;80.24;99812.81;5008258;28;20034;-61
2023/08/27 07:26:52;;;;;;;0.20;0.20;;;;;;;20.95;86.33;99791.25;5007983;28;20022;-62
2023/08/27 07:29:17;;;;;;;0.20;0.20;;;;;;;20.82;79.12;99793.78;5008197;28;20053;-61
2023/08/27 07:31:43;;;;;;;0.20;0.20;;;;;;;20.82;81.37;99804.31;5007775;28;20026;-61
2023/08/27 07:34:08;;;;;;;0.20;0.20;;;;;;;20.72;78.83;99811.13;5007844;28;20056;-61
2023/08/27 07:36:34;;;;;;;0.20;0.20;;;;;;;20.50;73.77;99813.25;5007714;28;20030;-61
2023/08/27 07:38:59;;;;;;;0.20;0.20;;;;;;;20.53;77.33;99814.84;5008064;28;20064;-62
2023/08/27 07:41:24;;;;;;;0.20;0.20;;;;;;;20.59;79.67;99821.56;5007776;28;20026;-61
2023/08/27 07:43:50;;;;;;;0.20;0.20;;;;;;;20.90;82.46;99823.19;5008006;28;20509;-62
2023/08/27 07:46:15;;;;;;;0.20;0.20;;;;;;;20.95;78.16;99833.47;5007783;28;20502;-62
2023/08/27 07:48:41;;;;;;;0.15;0.15;;;;;;;20.93;80.37;99845.91;5008001;28;20030;-61
2023/08/27 07:51:06;;;;;;;0.82;0.82;;;;;;;21.27;75.99;99846.47;5006548;28;20131;-62
2023/08/27 07:53:32;;;;;;;0.20;0.20;;;;;;;21.59;74.60;99850.66;5007873;28;20026;-62
2023/08/27 07:55:57;;;;;;;0.20;0.20;;;;;;;21.79;68.45;99836.19;5007763;28;20100;-61
2023/08/27 07:58:23;;;;;;;0.10;0.10;;;;;;;21.85;69.53;99840.25;5007674;28;20054;-61
2023/08/27 08:00:48;;;;;;;3.55;1.02;;;;;;;21.78;73.11;99845.06;5007457;28;20020;-61
2023/08/27 08:03:13;;;;;;;1.25;1.13;;;;;;;;;;5007328;28;20026;-61
2023/08/27 08:05:39;;;;;;;2.92;1.17;;;;;;;21.35;68.32;99843.34;5007374;28;20041;-61
2023/08/27 08:08:05;;;;;;;2.38;1.23;;;;;;;21.32;72.72;99846.19;5007109;28;20019;-62
2023/08/27 08:10:30;;;;;;;2.83;1.10;;;;;;;21.70;72.23;99849.09;5007334;28;20026;-60
2023/08/27 08:12:55;;;;;;;1.63;1.08;;;;;;;21.92;75.49;99838.03;5007473;28;20030;-61
2023/08/27 08:15:21;;;;;;;1.40;0.85;;;;;;;21.77;71.97;99838.06;5007021;28;20141;-60
2023/08/27 08:17:46;;;;;;;1.45;1.15;;;;;;;21.76;67.10;99831.06;5007236;28;20038;-62
2023/08/27 08:20:13;;;;;;;0.52;0.52;;;;;;;21.88;67.68;99831.25;5006813;28;20081;-61
2023/08/27 08:22:39;;;;;;;0.70;0.68;;;;;;;21.90;68.81;99839.94;5007316;28;20388;-63
2023/08/27 08:25:06;;;;;;;1.67;1.00;;;;;;;22.29;69.93;99846.16;5007104;28;20049;-62
2023/08/27 08:27:31;;;;;;;8.23;1.25;;;;;;;22.19;66.22;99833.66;5007219;28;20498;-62
2023/08/27 08:29:56;;;;;;;2.15;0.95;;;;;;;22.07;65.63;99845.91;5007127;28;20023;-62
2023/08/27 08:32:22;;;;;;;2.05;1.08;;;;;;;22.12;66.98;99855.22;5006800;28;20393;-61
2023/08/27 08:34:47;;;;;;;1.00;0.90;;;;;;;22.16;65.97;99851.41;5007110;28;20044;-62
2023/08/27 08:37:13;;;;;;;1.05;0.85;;;;;;;22.06;66.45;99860.06;5006523;28;20026;-61
2023/08/27 08:39:38;;;;;;;5.57;0.90;;;;;;;21.79;68.58;99852.03;5006797;28;20110;-61
2023/08/27 08:42:14;;;;;;;0.57;0.57;;;;;;;22.21;68.98;99845.81;5006743;28;20049;-61
2023/08/27 08:45:18;;;;;;;4.10;1.08;;;;;;;22.68;65.33;99842.75;5006485;28;20072;-61
2023/08/27 08:47:44;;;;;;;1.60;0.80;;;;;;;22.91;67.03;99845.59;4965150;29;20033;-61
2023/08/27 08:50:11;;;;;;;3.15;1.15;;;;;;;23.31;64.15;99838.47;4965306;29;20126;-59
2023/08/27 08:52:39;;;;;;;2.15;1.17;;;;;;;23.43;62.11;99840.25;4965774;29;20065;-61
2023/08/27 08:55:11;;;;;;;0.82;0.52;;;;;;;22.99;63.46;99845.91;4965188;29;20043;-61
2023/08/27 08:57:40;;;;;;;0.93;0.73;;;;;;;23.21;67.06;99832.97;4965288;29;20031;-61
2023/08/27 09:00:08;;;;;;;1.63;0.98;;;;;;;23.82;67.35;99831.31;4965224;29;20034;-61
2023/08/27 09:02:36;;;;;;;1.52;1.00;;;;;;;24.50;66.34;99836.88;4964905;28;20035;-62
2023/08/27 09:05:02;;;;;;;0.65;0.57;;;;;;;24.46;61.75;99842.50;4964990;29;20536;-60
2023/08/27 09:07:30;;;;;;;2.15;0.77;;;;;;;24.19;62.46;99844.50;4964733;29;20031;-61
2023/08/27 09:09:57;;;;;;;0.60;0.50;;;;;;;23.69;63.11;99839.31;4965237;29;20147;-60
2023/08/27 09:12:25;;;;;;;2.13;1.10;;;;;;;23.32;64.30;99853.38;4965638;29;20478;-61
2023/08/27 09:14:50;;;;;;;0.70;0.57;;;;;;;23.07;64.29;99852.47;4965285;29;20043;-61
2023/08/27 09:17:19;;;;;;;0.63;0.63;;;;;;;22.59;63.90;99844.22;4965140;29;20027;-61
2023/08/27 09:19:46;;;;;;;0.57;0.57;;;;;;;22.08;64.69;99842.31;4965234;29;20027;-62
2023/08/27 09:22:13;;;;;;;0.80;0.40;;;;;;;21.79;65.17;99836.19;4994799;28;20045;-62
2023/08/27 09:24:40;;;;;;;0.63;0.55;;;;;;;21.65;66.84;99844.13;5006051;28;20026;-62
2023/08/27 09:27:05;;;;;;;1.35;0.90;;;;;;;21.42;64.39;99849.09;5005896;28;20445;-62
2023/08/27 09:29:33;;;;;;;0.75;0.50;;;;;;;20.99;63.85;99836.78;5006140;28;20022;-63
2023/08/27 09:31:58;;;;;;;11.75;0.90;;;;;;;20.70;65.98;99837.59;5005667;28;20054;-61
2023/08/27 09:34:24;;;;;;;0.93;0.80;;;;;;;20.76;70.12;99836.34;5005862;28;20023;-61
2023/08/27 09:36:49;;;;;;;0.73;0.63;;;;;;;20.96;70.64;99829.06;5005570;28;20419;-61
2023/08/27 09:39:15;;;;;;;1.15;0.77;;;;;;;21.40;69.50;99825.44;5005734;28;20048;-62
2023/08/27 09:41:43;;;;;;;0.50;0.50;;;;;;;21.83;69.38;99822.78;5005858;28;20114;-61
2023/08/27 09:44:09;;;;;;;1.45;0.70;;;;;;;22.24;68.95;99816.53;5005775;28;20022;-62
2023/08/27 09:46:36;;;;;;;1.17;0.52;;;;;;;22.74;62.71;99820.31;5005718;28;20050;-61
2023/08/27 09:49:04;;;;;;;0.63;0.50;;;;;;;23.08;64.00;99822.41;5005471;28;20026;-61
2023/08/27 09:51:31;;;;;;;0.43;0.43;;;;;;;23.20;60.98;99815.38;5005428;28;20019;-62
2023/08/27 09:53:57;;;;;;;0.88;0.60;;;;;;;23.40;61.21;99811.34;5005172;28;20023;-62
2023/08/27 09:56:24;;;;;;;1.27;0.75;;;;;;;23.73;58.98;99812.47;5005303;28;20049;-62
2023/08/27 09:58:52;;;;;;;5.25;0.68;;;;;;;24.21;61.55;99805.47;5005616;28;20034;-62
2023/08/27 10:01:18;;;;;;;1.67;0.90;;;;;;;25.01;64.00;99818.00;5005716;28;20026;-61
2023/08/27 10:03:46;;;;;;;1.15;0.75;;;;;;;25.63;64.61;99812.22;5005791;28;20025;-62
2023/08/27 10:06:12;;;;;;;0.82;0.77;;;;;;;25.88;63.22;99799.56;5005425;28;20034;-62
2023/08/27 10:08:54;;;;;;;1.20;0.70;;;;;;;26.45;62.08;99801.09;5005252;28;20026;-60
2023/08/27 10:11:22;;;;;;;0.85;0.60;;;;;;;26.77;58.51;99794.81;5005534;28;20026;-62
2023/08/27 10:13:48;;;;;;;9.18;1.05;;;;;;;27.20;55.18;99806.22;5007253;28;20076;-62
2023/08/27 10:16:14;;;;;;;1.45;0.55;;;;;;;27.40;58.13;99808.91;5009018;28;20142;-62
2023/08/27 10:18:40;;;;;;;0.52;0.50;;;;;;;27.49;58.14;99793.06;5009448;28;20022;-62
2023/08/27 10:21:08;;;;;;;0.35;0.30;;;;;;;27.66;50.61;99799.53;5009080;28;20030;-61
2023/08/27 10:23:37;;;;;;;1.00;0.70;;;;;;;27.42;53.17;99809.59;5009153;28;20117;-62
2023/08/27 10:26:04;;;;;;;0.25;0.25;;;;;;;27.00;51.13;99804.44;5009120;28;20018;-62
2023/08/27 10:28:29;;;;;;;0.73;0.63;;;;;;;26.84;56.86;99801.28;5009287;28;20030;-62
2023/08/27 10:30:57;;;;;;;0.47;0.47;;;;;;;27.13;53.82;99790.88;5009105;28;20054;-62
2023/08/27 10:33:22;;;;;;;0.98;0.60;;;;;;;27.39;55.29;99799.22;5008951;28;20026;-61
2023/08/27 10:35:51;;;;;;;0.50;0.40;;;;;;;27.66;55.17;99794.19;5008930;28;20029;-61
2023/08/27 10:38:17;;;;;;;0.80;0.52;;;;;;;27.56;54.85;99804.84;5009213;28;20106;-62
2023/08/27 10:40:45;;;;;;;0.32;0.32;;;;;;;27.40;50.83;99808.91;5008792;28;20027;-61
2023/08/27 10:43:21;;;;;;;1.02;0.63;;;;;;;27.27;51.11;99809.16;5008714;28;20228;-62
2023/08/27 10:45:50;;;;;;;0.65;0.65;;;;;;;26.93;51.67;99810.31;5008612;28;20030;-62
2023/08/27 10:48:18;;;;;;;0.30;0.30;;;;;;;26.51;52.46;99819.19;5008960;28;20053;-62
2023/08/27 10:50:51;;;;;;;0.20;0.20;;;;;;;26.50;52.79;99814.88;5008661;28;20026;-62
2023/08/27 10:53:18;;;;;;;1.55;0.70;;;;;;;26.24;52.99;99820.56;5008595;28;20106;-62
2023/08/27 10:55:50;;;;;;;1.27;0.70;;;;;;;25.60;51.72;99828.41;5008522;28;20030;-61
2023/08/27 10:58:23;;;;;;;0.70;0.52;;;;;;;24.56;54.84;99824.94;5008577;28;20026;-61
2023/08/27 11:01:11;;;;;;;0.40;0.30;;;;;;;23.91;54.16;99824.47;5008626;28;20027;-61
2023/08/27 11:03:59;;;;;;;0.50;0.50;;;;;;;23.92;56.37;99832.31;5008374;28;20081;-61
2023/08/27 11:06:38;;;;;;;0.45;0.40;;;;;;;23.49;54.30;99826.56;5008674;28;20025;-61
2023/08/27 11:09:36;;;;;;;0.57;0.40;;;;;;;23.36;58.42;99826.56;5008555;28;20030;-60
2023/08/27 11:12:03;;;;;;;0.47;0.40;;;;;;;24.02;55.70;99828.03;5008421;28;20037;-62
2023/08/27 11:14:36;;;;;;;0.30;0.30;;;;;;;24.46;57.29;99822.13;5008488;28;20096;-62
2023/08/27 11:17:04;;;;;;;1.35;0.68;;;;;;;25.07;52.53;99811.34;5008534;28;20053;-61
2023/08/27 11:19:32;;;;;;;0.35;0.30;;;;;;;24.67;52.82;99825.91;5008564;28;20026;-61
2023/08/27 11:22:20;;;;;;;0.52;0.40;;;;;;;24.85;52.86;99826.28;5008006;28;20050;-61
2023/08/27 11:24:47;;;;;;;1.15;0.70;;;;;;;24.69;52.61;99839.91;5007088;28;20030;-61
2023/08/27 11:27:15;;;;;;;0.63;0.45;;;;;;;23.75;53.84;99834.38;5008018;28;20360;-61